createdAt,value
2022-12-01T00:01:08.678Z,44.63
2022-12-01T00:03:35.612Z,43.47
2022-12-01T00:06:05.285Z,41.70
2022-12-01T00:08:33.450Z,40.87
2022-12-01T00:11:03.486Z,41.77
2022-12-01T00:13:30.472Z,42.93
2022-12-01T00:15:57.431Z,42.67
2022-12-01T00:18:24.349Z,44.67
2022-12-01T00:20:55.328Z,43.53
2022-12-01T00:23:23.165Z,39.90
2022-12-01T00:25:50.100Z,42.00
2022-12-01T00:28:17.027Z,42.67
2022-12-01T00:30:43.972Z,43.93
2022-12-01T00:33:10.880Z,42.23
2022-12-01T00:35:37.830Z,43.87
2022-12-01T00:38:04.753Z,45.43
2022-12-01T00:40:32.354Z,45.50
2022-12-01T00:42:59.316Z,42.43
2022-12-01T00:45:26.209Z,43.50
2022-12-01T00:47:53.505Z,43.47
2022-12-01T00:50:20.516Z,43.00
2022-12-01T00:52:47.462Z,46.60
2022-12-01T00:55:14.510Z,45.77
2022-12-01T00:57:42.598Z,46.07
2022-12-01T01:00:11.998Z,46.60
2022-12-01T01:02:39.831Z,47.07
2022-12-01T01:05:07.573Z,45.63
2022-12-01T01:07:34.567Z,46.67
2022-12-01T01:10:01.990Z,45.10
2022-12-01T01:12:29.281Z,42.13
2022-12-01T01:14:56.860Z,43.70
2022-12-01T01:17:23.893Z,43.53
2022-12-01T01:19:52.453Z,44.93
2022-12-01T01:22:19.565Z,43.47
2022-12-01T01:24:46.452Z,43.97
2022-12-01T01:27:13.172Z,45.13
2022-12-01T01:29:40.111Z,44.53
2022-12-01T01:32:07.857Z,45.40
2022-12-01T01:34:34.858Z,42.80
2022-12-01T01:37:01.789Z,43.60
2022-12-01T01:39:28.735Z,43.63
2022-12-01T01:41:55.671Z,43.50
2022-12-01T01:44:46.871Z,46.07
2022-12-01T01:47:15.851Z,44.77
2022-12-01T01:49:42.921Z,46.60
2022-12-01T01:52:10.117Z,43.63
2022-12-01T01:54:40.536Z,42.60
2022-12-01T01:57:09.070Z,44.60
2022-12-01T01:59:38.580Z,45.00
2022-12-01T02:02:07.786Z,44.37
2022-12-01T02:04:37.427Z,46.97
2022-12-01T02:07:04.650Z,46.37
2022-12-01T02:09:31.587Z,47.07
2022-12-01T02:12:10.774Z,45.57
2022-12-01T02:15:02.437Z,41.87
2022-12-01T02:17:41.565Z,42.90
2022-12-01T02:20:36.195Z,42.23
2022-12-01T02:23:32.257Z,41.80
2022-12-01T02:26:16.103Z,42.87
2022-12-01T02:29:06.302Z,44.00
2022-12-01T02:31:39.650Z,45.13
2022-12-01T02:34:15.964Z,41.60
2022-12-01T02:36:50.096Z,43.17
2022-12-01T02:39:21.810Z,45.10
2022-12-01T02:41:51.781Z,46.23
2022-12-01T02:44:25.364Z,45.10
2022-12-01T02:46:57.058Z,47.77
2022-12-01T02:49:30.297Z,46.27
2022-12-01T02:51:58.193Z,46.50
2022-12-01T02:54:28.959Z,43.03
2022-12-01T02:56:55.961Z,42.77
2022-12-01T02:59:22.933Z,47.23
2022-12-01T03:02:01.194Z,46.33
2022-12-01T03:04:45.425Z,46.80
2022-12-01T03:07:26.302Z,45.20
2022-12-01T03:10:03.881Z,46.40
2022-12-01T03:12:37.963Z,45.87
2022-12-01T03:15:10.006Z,45.80
2022-12-01T03:17:42.659Z,47.77
2022-12-01T03:20:14.194Z,46.00
2022-12-01T03:22:45.506Z,45.97
2022-12-01T03:25:16.636Z,46.20
2022-12-01T03:28:06.706Z,46.27
2022-12-01T03:30:34.898Z,51.70
2022-12-01T03:33:08.934Z,47.50
2022-12-01T03:35:41.182Z,47.17
2022-12-01T03:38:14.208Z,47.13
2022-12-01T03:40:41.786Z,47.57
2022-12-01T03:43:12.766Z,46.90
2022-12-01T03:45:47.169Z,48.40
2022-12-01T03:48:14.714Z,49.07
2022-12-01T03:50:49.956Z,46.97
2022-12-01T03:53:21.508Z,51.33
2022-12-01T03:55:55.794Z,50.40
2022-12-01T03:58:27.288Z,49.80
2022-12-01T04:00:56.886Z,49.13
2022-12-01T04:03:25.519Z,51.87
2022-12-01T04:05:52.512Z,52.00
2022-12-01T04:08:19.497Z,53.13
2022-12-01T04:10:46.656Z,52.17
2022-12-01T04:13:21.868Z,52.93
2022-12-01T04:15:49.378Z,50.97
2022-12-01T04:18:16.568Z,52.17
2022-12-01T04:20:45.377Z,54.47
2022-12-01T04:23:33.426Z,52.63
2022-12-01T04:26:00.463Z,49.97
2022-12-01T04:28:27.403Z,55.13
2022-12-01T04:30:54.415Z,50.83
2022-12-01T04:33:21.611Z,49.57
2022-12-01T04:35:57.577Z,53.10
2022-12-01T04:38:30.087Z,49.20
2022-12-01T04:40:57.693Z,51.07
2022-12-01T04:43:24.642Z,49.53
2022-12-01T04:45:51.563Z,50.53
2022-12-01T04:48:18.541Z,50.40
2022-12-01T04:50:45.471Z,47.67
2022-12-01T04:53:12.994Z,48.93
2022-12-01T04:55:40.207Z,52.27
2022-12-01T04:58:07.318Z,49.73
2022-12-01T05:00:34.478Z,49.10
2022-12-01T05:03:01.604Z,50.43
2022-12-01T05:05:28.549Z,50.07
2022-12-01T05:07:55.497Z,50.27
2022-12-01T05:10:22.870Z,50.37
2022-12-01T05:12:49.835Z,50.60
2022-12-01T05:15:17.308Z,52.40
2022-12-01T05:17:44.509Z,50.63
2022-12-01T05:20:36.097Z,52.27
2022-12-01T05:23:06.120Z,52.80
2022-12-01T05:25:33.980Z,52.13
2022-12-01T05:28:01.077Z,51.47
2022-12-01T05:30:28.936Z,51.73
2022-12-01T05:32:56.054Z,53.73
2022-12-01T05:35:23.066Z,51.40
2022-12-01T05:37:50.022Z,52.57
2022-12-01T05:40:17.063Z,51.63
2022-12-01T05:42:44.775Z,50.70
2022-12-01T05:45:11.588Z,49.47
2022-12-01T05:47:38.548Z,52.57
2022-12-01T05:50:06.588Z,49.97
2022-12-01T05:52:34.520Z,51.03
2022-12-01T05:55:01.476Z,49.57
2022-12-01T05:57:28.412Z,51.07
2022-12-01T05:59:55.739Z,51.17
2022-12-01T06:02:22.829Z,53.73
2022-12-01T06:04:49.814Z,53.17
2022-12-01T06:07:16.846Z,50.80
2022-12-01T06:09:45.635Z,54.30
2022-12-01T06:12:12.614Z,54.40
2022-12-01T06:14:41.625Z,49.60
2022-12-01T06:17:09.373Z,53.60
2022-12-01T06:19:36.424Z,52.60
2022-12-01T06:22:03.609Z,54.07
2022-12-01T06:24:33.422Z,54.37
2022-12-01T06:27:03.224Z,53.63
2022-12-01T06:29:30.169Z,54.80
2022-12-01T06:31:57.174Z,52.77
2022-12-01T06:34:24.559Z,54.67
2022-12-01T06:36:51.283Z,52.47
2022-12-01T06:39:18.065Z,53.33
2022-12-01T06:41:45.081Z,56.03
2022-12-01T06:44:12.034Z,56.20
2022-12-01T06:46:39.163Z,56.53
2022-12-01T06:49:06.169Z,54.57
2022-12-01T06:51:33.749Z,56.80
2022-12-01T06:54:05.211Z,56.37
2022-12-01T06:56:32.672Z,58.17
2022-12-01T06:59:00.080Z,56.20
2022-12-01T07:01:27.660Z,58.60
2022-12-01T07:03:54.648Z,58.57
2022-12-01T07:06:21.670Z,64.47
2022-12-01T07:08:49.083Z,63.90
2022-12-01T07:11:15.937Z,62.30
2022-12-01T07:13:45.245Z,67.83
2022-12-01T07:16:12.771Z,66.83
2022-12-01T07:18:40.146Z,64.83
2022-12-01T07:21:09.881Z,64.53
2022-12-01T07:23:36.808Z,66.53
2022-12-01T07:26:06.830Z,67.70
2022-12-01T07:28:34.149Z,65.87
2022-12-01T07:31:03.633Z,66.07
2022-12-01T07:33:31.126Z,65.50
2022-12-01T07:35:58.265Z,65.37
2022-12-01T07:38:25.289Z,66.87
2022-12-01T07:40:52.600Z,66.50
2022-12-01T07:43:19.970Z,66.00
2022-12-01T07:45:47.101Z,67.60
2022-12-01T07:48:14.048Z,69.97
2022-12-01T07:50:41.058Z,71.23
2022-12-01T07:53:08.018Z,69.57
2022-12-01T07:55:37.531Z,73.03
2022-12-01T07:58:05.519Z,73.37
2022-12-01T08:00:33.265Z,72.67
2022-12-01T08:03:00.336Z,76.43
2022-12-01T08:05:27.739Z,72.33
2022-12-01T08:07:54.763Z,68.03
2022-12-01T08:10:21.744Z,71.80
2022-12-01T08:12:48.762Z,65.83
2022-12-01T08:15:15.828Z,66.00
2022-12-01T08:17:43.215Z,64.43
2022-12-01T08:20:11.519Z,66.13
2022-12-01T08:22:38.522Z,66.30
2022-12-01T08:25:06.213Z,65.77
2022-12-01T08:27:35.854Z,67.60
2022-12-01T08:30:05.523Z,70.23
2022-12-01T08:32:32.965Z,70.70
2022-12-01T08:35:01.176Z,65.13
2022-12-01T08:37:28.594Z,67.97
2022-12-01T08:39:55.801Z,71.47
2022-12-01T08:42:23.486Z,68.23
2022-12-01T08:44:50.540Z,67.20
2022-12-01T08:47:19.005Z,70.53
2022-12-01T08:49:46.458Z,71.50
2022-12-01T08:52:14.507Z,71.17
2022-12-01T08:54:41.489Z,71.10
2022-12-01T08:57:08.731Z,73.90
2022-12-01T08:59:35.807Z,70.47
2022-12-01T09:02:06.922Z,70.03
2022-12-01T09:04:34.324Z,69.77
2022-12-01T09:07:01.143Z,71.17
2022-12-01T09:09:31.625Z,71.20
2022-12-01T09:11:58.648Z,70.47
2022-12-01T09:14:27.653Z,73.47
2022-12-01T09:16:54.658Z,72.10
2022-12-01T09:19:24.695Z,72.17
2022-12-01T09:21:51.755Z,73.00
2022-12-01T09:24:18.908Z,73.90
2022-12-01T09:26:46.513Z,72.83
2022-12-01T09:29:15.188Z,73.17
2022-12-01T09:31:43.749Z,70.50
2022-12-01T09:34:13.527Z,71.10
2022-12-01T09:36:40.716Z,69.73
2022-12-01T09:39:08.438Z,70.63
2022-12-01T09:41:39.471Z,69.43
2022-12-01T09:44:15.093Z,68.13
2022-12-01T09:46:46.673Z,62.77
2022-12-01T09:49:17.443Z,63.40
2022-12-01T09:51:44.675Z,62.20
2022-12-01T09:54:13.629Z,61.90
2022-12-01T09:56:45.229Z,56.30
2022-12-01T09:59:21.878Z,57.97
2022-12-01T10:01:54.709Z,55.03
2022-12-01T10:04:27.909Z,56.83
2022-12-01T10:06:59.097Z,57.70
2022-12-01T10:09:32.183Z,57.90
2022-12-01T10:12:06.086Z,55.73
2022-12-01T10:14:36.268Z,56.50
2022-12-01T10:17:21.852Z,56.57
2022-12-01T10:19:54.966Z,53.97
2022-12-01T10:23:04.212Z,56.70
2022-12-01T10:25:39.250Z,53.57
2022-12-01T10:28:24.023Z,59.77
2022-12-01T10:30:52.920Z,52.20
2022-12-01T10:33:24.604Z,54.60
2022-12-01T10:35:51.889Z,56.23
2022-12-01T10:38:25.651Z,51.37
2022-12-01T10:40:53.963Z,53.10
2022-12-01T10:43:32.702Z,54.10
2022-12-01T10:46:08.705Z,55.20
2022-12-01T10:48:53.515Z,53.13
2022-12-01T10:51:24.762Z,56.43
2022-12-01T10:53:58.707Z,53.67
2022-12-01T10:56:27.299Z,52.83
2022-12-01T10:58:56.553Z,52.23
2022-12-01T11:01:26.339Z,53.80
2022-12-01T11:03:56.378Z,57.07
2022-12-01T11:06:27.530Z,56.10
2022-12-01T11:08:57.503Z,54.57
2022-12-01T11:11:30.607Z,52.03
2022-12-01T11:14:00.939Z,54.57
2022-12-01T11:16:38.442Z,54.63
2022-12-01T11:19:20.465Z,54.30
2022-12-01T11:21:52.927Z,54.90
2022-12-01T11:24:29.164Z,55.00
2022-12-01T11:26:57.322Z,53.20
2022-12-01T11:29:31.754Z,54.43
2022-12-01T11:32:00.424Z,54.50
2022-12-01T11:34:30.211Z,53.80
2022-12-01T11:37:00.249Z,52.53
2022-12-01T11:39:31.307Z,53.43
2022-12-01T11:42:00.119Z,52.73
2022-12-01T11:44:50.222Z,52.23
2022-12-01T11:47:23.631Z,53.00
2022-12-01T11:49:56.846Z,51.93
2022-12-01T11:52:30.152Z,53.00
2022-12-01T11:55:10.049Z,51.50
2022-12-01T11:57:40.125Z,53.03
2022-12-01T12:00:13.847Z,53.17
2022-12-01T12:02:48.930Z,52.33
2022-12-01T12:05:42.505Z,50.03
2022-12-01T12:08:20.543Z,50.90
2022-12-01T12:10:55.533Z,48.67
2022-12-01T12:13:42.065Z,50.63
2022-12-01T12:16:17.711Z,47.23
2022-12-01T12:18:59.844Z,44.87
2022-12-01T12:21:33.195Z,46.30
2022-12-01T12:24:25.069Z,44.90
2022-12-01T12:26:59.942Z,45.10
2022-12-01T12:29:41.143Z,43.27
2022-12-01T12:32:26.656Z,43.90
2022-12-01T12:35:03.522Z,46.53
2022-12-01T12:37:39.924Z,44.30
2022-12-01T12:40:29.752Z,45.30
2022-12-01T12:43:17.765Z,46.00
2022-12-01T12:45:52.910Z,46.80
2022-12-01T12:48:28.565Z,46.67
2022-12-01T12:51:07.622Z,45.50
2022-12-01T12:53:41.633Z,44.63
2022-12-01T12:56:14.414Z,44.67
2022-12-01T12:58:49.294Z,44.17
2022-12-01T13:01:20.930Z,43.83
2022-12-01T13:03:55.195Z,46.20
2022-12-01T13:06:27.666Z,45.67
2022-12-01T13:09:04.145Z,43.80
2022-12-01T13:11:41.506Z,44.07
2022-12-01T13:14:18.114Z,44.80
2022-12-01T13:16:49.968Z,44.97
2022-12-01T13:19:22.268Z,45.93
2022-12-01T13:21:52.375Z,44.50
2022-12-01T13:24:23.669Z,46.50
2022-12-01T13:26:54.325Z,46.57
2022-12-01T13:29:24.613Z,46.20
2022-12-01T13:31:53.908Z,45.77
2022-12-01T13:34:25.055Z,44.27
2022-12-01T13:36:55.409Z,43.10
2022-12-01T13:39:24.654Z,42.73
2022-12-01T13:42:00.740Z,44.10
2022-12-01T13:44:33.279Z,43.73
2022-12-01T13:47:04.393Z,46.30
2022-12-01T13:49:39.858Z,42.73
2022-12-01T13:52:34.515Z,43.17
2022-12-01T13:55:25.492Z,42.87
2022-12-01T13:58:23.820Z,42.67
2022-12-01T14:00:50.904Z,43.93
2022-12-01T14:03:40.432Z,42.57
2022-12-01T14:06:19.851Z,42.70
2022-12-01T14:08:49.860Z,45.27
2022-12-01T14:11:21.409Z,45.30
2022-12-01T14:13:52.760Z,44.07
2022-12-01T14:16:21.708Z,43.27
2022-12-01T14:18:57.439Z,43.30
2022-12-01T14:21:46.395Z,42.20
2022-12-01T14:24:27.085Z,42.17
2022-12-01T14:26:54.838Z,43.20
2022-12-01T14:29:28.637Z,41.73
2022-12-01T14:32:25.735Z,42.90
2022-12-01T14:34:59.362Z,44.23
2022-12-01T14:37:33.153Z,42.33
2022-12-01T14:40:08.431Z,41.20
2022-12-01T14:42:58.081Z,42.93
2022-12-01T14:45:31.773Z,44.60
2022-12-01T14:48:02.208Z,41.63
2022-12-01T14:50:40.874Z,42.37
2022-12-01T14:53:24.841Z,42.57
2022-12-01T14:55:56.271Z,44.10
2022-12-01T14:58:25.919Z,44.17
2022-12-01T15:01:06.480Z,42.07
2022-12-01T15:03:40.640Z,41.73
2022-12-01T15:06:08.445Z,43.77
2022-12-01T15:08:43.608Z,41.87
2022-12-01T15:11:22.693Z,43.03
2022-12-01T15:13:51.697Z,41.30
2022-12-01T15:16:20.799Z,42.17
2022-12-01T15:18:47.838Z,42.23
2022-12-01T15:21:17.723Z,42.70
2022-12-01T15:23:56.418Z,46.40
2022-12-01T15:26:25.397Z,42.80
2022-12-01T15:29:04.657Z,41.90
2022-12-01T15:31:32.046Z,44.07
2022-12-01T15:33:59.351Z,41.57
2022-12-01T15:36:26.377Z,43.53
2022-12-01T15:38:53.984Z,44.17
2022-12-01T15:41:31.020Z,43.97
2022-12-01T15:44:01.242Z,43.60
2022-12-01T15:46:29.201Z,44.40
2022-12-01T15:49:14.685Z,44.60
2022-12-01T15:51:41.728Z,47.53
2022-12-01T15:54:18.088Z,45.77
2022-12-01T15:56:45.158Z,43.93
2022-12-01T15:59:25.747Z,43.80
2022-12-01T16:01:52.782Z,45.83
2022-12-01T16:04:22.022Z,45.57
2022-12-01T16:06:56.850Z,45.37
2022-12-01T16:09:32.290Z,47.40
2022-12-01T16:12:24.177Z,47.50
2022-12-01T16:15:06.217Z,45.33
2022-12-01T16:17:42.290Z,43.97
2022-12-01T16:20:24.092Z,47.07
2022-12-01T16:22:56.723Z,46.57
2022-12-01T16:25:32.353Z,46.40
2022-12-01T16:28:00.470Z,45.70
2022-12-01T16:30:34.285Z,43.53
2022-12-01T16:33:02.882Z,47.07
2022-12-01T16:35:32.896Z,48.83
2022-12-01T16:38:03.664Z,49.07
2022-12-01T16:40:30.400Z,46.63
2022-12-01T16:42:57.340Z,45.07
2022-12-01T16:45:25.975Z,46.40
2022-12-01T16:47:53.256Z,46.13
2022-12-01T16:50:23.277Z,45.97
2022-12-01T16:52:50.326Z,49.33
2022-12-01T16:55:26.952Z,53.70
2022-12-01T16:57:54.693Z,50.60
2022-12-01T17:00:22.098Z,46.17
2022-12-01T17:02:49.190Z,43.63
2022-12-01T17:05:16.679Z,45.87
2022-12-01T17:07:43.794Z,48.73
2022-12-01T17:10:11.716Z,47.10
2022-12-01T17:12:38.731Z,46.80
2022-12-01T17:15:05.989Z,46.13
2022-12-01T17:17:32.990Z,45.63
2022-12-01T17:20:00.005Z,46.00
2022-12-01T17:22:27.378Z,47.60
2022-12-01T17:24:54.849Z,49.83
2022-12-01T17:27:21.690Z,48.60
2022-12-01T17:29:48.794Z,46.03
2022-12-01T17:32:16.863Z,47.87
2022-12-01T17:34:44.872Z,49.67
2022-12-01T17:37:16.110Z,50.30
2022-12-01T17:39:46.939Z,51.87
2022-12-01T17:42:13.904Z,50.67
2022-12-01T17:44:40.886Z,48.97
2022-12-01T17:47:11.399Z,46.23
2022-12-01T17:49:38.472Z,49.57
2022-12-01T17:52:06.072Z,47.80
2022-12-01T17:54:33.422Z,52.23
2022-12-01T17:57:00.969Z,46.60
2022-12-01T17:59:27.860Z,46.57
2022-12-01T18:01:54.874Z,50.17
2022-12-01T18:04:21.705Z,50.50
2022-12-01T18:06:53.756Z,55.43
2022-12-01T18:09:21.479Z,50.90
2022-12-01T18:11:49.719Z,45.37
2022-12-01T18:14:19.630Z,48.57
2022-12-01T18:16:46.713Z,43.83
2022-12-01T18:19:13.814Z,44.53
2022-12-01T18:21:40.903Z,44.87
2022-12-01T18:24:09.507Z,44.10
2022-12-01T18:26:37.940Z,42.90
2022-12-01T18:29:06.987Z,45.73
2022-12-01T18:31:34.811Z,45.90
2022-12-01T18:34:03.716Z,47.57
2022-12-01T18:36:32.263Z,47.97
2022-12-01T18:39:00.738Z,47.90
2022-12-01T18:41:27.758Z,45.13
2022-12-01T18:43:54.859Z,46.43
2022-12-01T18:46:22.169Z,45.10
2022-12-01T18:48:51.287Z,44.80
2022-12-01T18:51:18.765Z,43.97
2022-12-01T18:53:45.969Z,44.27
2022-12-01T18:56:15.074Z,45.13
2022-12-01T18:58:42.523Z,42.57
2022-12-01T19:01:19.022Z,42.87
2022-12-01T19:03:45.995Z,46.70
2022-12-01T19:06:13.777Z,47.17
2022-12-01T19:08:40.754Z,46.07
2022-12-01T19:11:07.761Z,44.07
2022-12-01T19:13:34.794Z,44.53
2022-12-01T19:16:06.148Z,46.93
2022-12-01T19:18:33.032Z,43.93
2022-12-01T19:21:01.160Z,44.70
2022-12-01T19:23:28.552Z,43.60
2022-12-01T19:25:55.423Z,42.90
2022-12-01T19:28:22.593Z,43.70
2022-12-01T19:30:49.598Z,45.97
2022-12-01T19:33:16.582Z,44.17
2022-12-01T19:35:43.518Z,43.43
2022-12-01T19:38:10.663Z,42.90
2022-12-01T19:40:38.820Z,44.20
2022-12-01T19:43:06.057Z,46.57
2022-12-01T19:45:35.210Z,42.53
2022-12-01T19:48:02.487Z,45.50
2022-12-01T19:50:30.055Z,42.57
2022-12-01T19:52:57.227Z,45.67
2022-12-01T19:55:24.509Z,44.07
2022-12-01T19:57:52.952Z,43.67
2022-12-01T20:00:21.200Z,41.17
2022-12-01T20:02:48.257Z,44.87
2022-12-01T20:05:15.417Z,41.73
2022-12-01T20:07:42.873Z,41.00
2022-12-01T20:10:10.687Z,40.87
2022-12-01T20:12:37.685Z,40.43
2022-12-01T20:15:07.935Z,38.97
2022-12-01T20:17:35.805Z,40.47
2022-12-01T20:20:02.807Z,39.73
2022-12-01T20:22:31.345Z,40.23
2022-12-01T20:24:58.430Z,40.47
2022-12-01T20:27:25.777Z,41.00
2022-12-01T20:29:52.423Z,40.50
2022-12-01T20:32:23.459Z,41.90
2022-12-01T20:34:51.059Z,40.07
2022-12-01T20:37:18.146Z,40.47
2022-12-01T20:39:45.036Z,40.23
2022-12-01T20:42:11.949Z,40.50
2022-12-01T20:44:39.687Z,40.77
2022-12-01T20:47:06.276Z,39.83
2022-12-01T20:49:33.622Z,39.63
2022-12-01T20:52:00.600Z,40.13
2022-12-01T20:54:29.236Z,39.17
2022-12-01T20:56:57.831Z,39.97
2022-12-01T20:59:24.845Z,39.63
2022-12-01T21:01:51.760Z,39.57
2022-12-01T21:04:18.832Z,41.50
2022-12-01T21:06:46.632Z,41.07
2022-12-01T21:09:14.195Z,39.23
2022-12-01T21:12:03.484Z,39.00
2022-12-01T21:14:35.576Z,39.90
2022-12-01T21:17:09.299Z,41.83
2022-12-01T21:19:44.151Z,39.67
2022-12-01T21:22:12.158Z,38.87
2022-12-01T21:24:48.495Z,40.93
2022-12-01T21:27:17.057Z,39.47
2022-12-01T21:29:45.828Z,40.03
2022-12-01T21:32:15.132Z,41.17
2022-12-01T21:34:43.478Z,40.47
2022-12-01T21:37:18.872Z,38.53
2022-12-01T21:40:06.169Z,38.73
2022-12-01T21:42:32.775Z,38.30
2022-12-01T21:45:01.074Z,41.87
2022-12-01T21:47:29.616Z,39.13
2022-12-01T21:49:58.112Z,39.93
2022-12-01T21:52:29.568Z,41.13
2022-12-01T21:55:00.505Z,39.57
2022-12-01T21:57:41.169Z,39.27
2022-12-01T22:04:02.996Z,38.10
2022-12-01T22:06:35.016Z,38.97
2022-12-01T22:09:22.405Z,37.53
2022-12-01T22:11:58.116Z,38.47
2022-12-01T22:14:28.100Z,38.27
2022-12-01T22:16:58.117Z,39.63
2022-12-01T22:19:41.853Z,38.20
2022-12-01T22:22:23.999Z,40.47
2022-12-01T22:24:53.557Z,37.60
2022-12-01T22:27:28.966Z,38.77
2022-12-01T22:30:02.208Z,38.13
2022-12-01T22:32:43.675Z,37.47
2022-12-01T22:35:33.341Z,37.70
2022-12-01T22:38:14.985Z,38.23
2022-12-01T22:40:51.208Z,36.73
2022-12-01T22:43:29.880Z,39.03
2022-12-01T22:46:21.937Z,37.07
2022-12-01T22:48:51.659Z,39.93
2022-12-01T22:51:47.629Z,36.67
2022-12-01T22:54:27.047Z,36.30
2022-12-01T22:57:01.868Z,37.00
2022-12-01T22:59:33.333Z,36.40
2022-12-01T23:02:01.806Z,38.83
2022-12-01T23:04:31.548Z,38.93
2022-12-01T23:07:09.566Z,40.07
2022-12-01T23:09:39.224Z,37.03
2022-12-01T23:12:21.505Z,37.80
2022-12-01T23:14:50.190Z,38.37
2022-12-01T23:17:21.471Z,36.23
2022-12-01T23:19:49.829Z,38.80
2022-12-01T23:22:16.701Z,38.13
2022-12-01T23:24:43.609Z,40.17
2022-12-01T23:27:10.578Z,38.97
2022-12-01T23:29:38.291Z,38.93
2022-12-01T23:32:05.272Z,37.63
2022-12-01T23:34:32.256Z,39.40
2022-12-01T23:36:59.156Z,38.77
2022-12-01T23:39:31.614Z,37.07
2022-12-01T23:41:59.229Z,39.57
2022-12-01T23:44:35.059Z,38.53
2022-12-01T23:47:02.988Z,38.30
2022-12-01T23:49:32.675Z,38.43
2022-12-01T23:52:01.805Z,35.53
2022-12-01T23:54:30.446Z,37.83
2022-12-01T23:57:02.682Z,39.20
2022-12-01T23:59:31.063Z,38.37
